LFLL/LYS METAR and TAF weather

Enter ICAO airport designator
Station Type Date Time Source
LFLL METAR 2021/09/25 13:00 UTC NOAA

LFLL 251300Z 20016KT CAVOK 26/13 Q1016 TEMPO 19015G28KT


Station Type Date Time Source
LFLL Decoded METAR 2021/09/25 13:00 UTC NOAA

Lyon / Satolas, France (LFLL) 45-44N 005-05E 240M
Sep 25, 2021 - 09:00 AM EDT / 2021.09.25 1300 UTC
Wind: from the SSW (200 degrees) at 18 MPH (16 KT):0
Visibility: greater than 7 mile(s):0
Temperature: 78 F (26 C)
Dew Point: 55 F (13 C)
Relative Humidity: 44%
Pressure (altimeter): 30.00 in. Hg (1016 hPa)
ob: LFLL 251300Z 20016KT CAVOK 26/13 Q1016 TEMPO 19015G28KT
cycle: 13

Station Type Date Time Source
LFLL TAF 2021/09/25 12:54 UTC NOAA

TAF LFLL 251100Z 2512/2618 18010KT CAVOK
TEMPO 2512/2518 19015G28KT PROB30
TEMPO 2512/2515 FEW050TCU
TEMPO 2523/2607 4000 SHRA BKN030 SCT045CB BKN060 PROB40
TEMPO 2600/2606 VRB15G25KT 2000 TSRA BKN020 SCT040CB OVC060
BECMG 2607/2609 VRB05KT
TEMPO 2607/2610 BKN020 PROB40
TEMPO 2614/2618 VRB12KT 4000 SHRA SCT040CB BKN050

Example: see airport list